Batavia, OH (45103)

06:56 PM EST del 08 Dicembre 2016 (GMT -0500)
Champions Crossing @ Lexington Run | | Change Station

Alt. 807 ft 39.10 °N, 84.21 °W | Updated 2 seconds ago

Mostly Cloudy
Molto nuvoloso
24.8 °F
Sembra 20 °F
N
3.6
Vento Variabile Vento da NO
Gusts 4.9 mph

Oggi
Massima -- | Minima -- °F
--% Possibilità di precip.
Ieri
Massima -- | Minima -- °F
Precip. -- in
Pressione 30.38 in
Visibilità 10.0 miglia
Nuvole Nubi sparse 2900 ft
Molto nuvoloso 3500 ft
Raffreddamento del vento 20 °F
Punto di rugiada 9 °F
Umidità 50%
Piovosità 0.00 in
Spessore del manto nevoso Non disponibile.
7:43 AM 5:14 PM
Gobba a ponente, 68% visible
METAR KI69 082336Z AUTO 30012G19KT 10SM SCT029 BKN035 M04/M10 A3038 RMK AO2 T10421104
Pressione 30.38 in
Visibilità 10.0 miglia
Nuvole Nubi sparse 2900 ft
Molto nuvoloso 3500 ft
Raffreddamento del vento 20 °F
Punto di rugiada 9 °F
Umidità 50%
Piovosità 0.00 in
Spessore del manto nevoso Non disponibile.
7:43 AM 5:14 PM
Gobba a ponente, 68% visible
METAR KI69 082336Z AUTO 30012G19KT 10SM SCT029 BKN035 M04/M10 A3038 RMK AO2 T10421104

10-Day Weather Forecast

Almanac

Astronomia

Dec. 08, 2016 Alba Tramonto
Ora attuale
Crepuscolo civile
Crepuscolo nautico
Crepuscolo astronomico
Luna
Estensione della luce visibile
Lunghezza del giorno
Tomorrow will be .
, % of the Moon is Illuminated

Gli estremi di oggi

State Highs State Lows

Community

WunderPhotos

Upload Photos

1,956,277 foto caricate!

WunderBlog® & News

Nearby

Qualità dell'aria

  Qualità dell'aria Indice AQ Inquinante
Not available.

Profondità neve

Stazione Profondità Altitudine

Attività sismica

Città  Distanza Mag. Data & Ora
Minimo Magnitudo Mostrato è 2.5.

Temperature delle acque costiere

Località Temperatura

Stations

Stazioni meteo nelle vicinanze

Ubicazione della stazione Temp. Raffreddamento del vento Punto di rugiada Umidità Vento Precip. Alt. Aggiornato Tipo
                   

Watches & Warnings

There are currently no watches in effect.